createdAt,value
2019-01-19T00:02:24.429Z,100.00
2019-01-19T00:05:44.786Z,100.00
2019-01-19T00:09:33.984Z,100.00
2019-01-19T00:12:43.786Z,100.00
2019-01-19T00:15:43.827Z,100.00
2019-01-19T00:19:09.687Z,100.00
2019-01-19T00:22:35.549Z,100.00
2019-01-19T00:26:09.336Z,100.00
2019-01-19T00:29:05.543Z,100.00
2019-01-19T00:32:15.374Z,100.00
2019-01-19T00:35:32.048Z,100.00
2019-01-19T00:39:06.926Z,100.00
2019-01-19T00:42:13.734Z,100.00
2019-01-19T00:45:52.039Z,100.00
2019-01-19T00:49:30.544Z,100.00
2019-01-19T00:52:47.365Z,100.00
2019-01-19T00:55:54.939Z,100.00
2019-01-19T00:59:09.338Z,100.00
2019-01-19T01:02:27.773Z,100.00
2019-01-19T01:05:38.319Z,100.00
2019-01-19T01:09:18.516Z,100.00
2019-01-19T01:12:34.774Z,100.00
2019-01-19T01:16:10.895Z,100.00
2019-01-19T01:19:31.766Z,100.00
2019-01-19T01:22:34.282Z,100.00
2019-01-19T01:26:03.600Z,100.00
2019-01-19T01:29:46.578Z,100.00
2019-01-19T01:32:50.817Z,100.00
2019-01-19T01:36:37.168Z,100.00
2019-01-19T01:40:10.314Z,100.00
2019-01-19T01:43:48.128Z,100.00
2019-01-19T01:47:04.943Z,100.00
2019-01-19T01:50:26.308Z,100.00
2019-01-19T01:54:10.813Z,100.00
2019-01-19T01:56:42.650Z,100.00
2019-01-19T01:59:31.103Z,100.00
2019-01-19T02:03:01.715Z,100.00
2019-01-19T02:05:52.680Z,100.00
2019-01-19T02:09:12.185Z,100.00
2019-01-19T02:12:55.399Z,100.00
2019-01-19T02:16:18.317Z,100.00
2019-01-19T02:19:59.056Z,100.00
2019-01-19T02:23:48.351Z,100.00
2019-01-19T02:27:33.753Z,100.00
2019-01-19T02:30:54.744Z,100.00
2019-01-19T02:33:49.134Z,100.00
2019-01-19T02:37:26.887Z,100.00
2019-01-19T02:40:36.563Z,100.00
2019-01-19T02:44:21.300Z,100.00
2019-01-19T02:47:27.913Z,100.00
2019-01-19T02:50:59.633Z,100.00
2019-01-19T02:54:24.982Z,100.00
2019-01-19T02:57:57.520Z,100.00
2019-01-19T03:01:26.295Z,100.00
2019-01-19T03:04:54.980Z,100.00
2019-01-19T03:08:06.999Z,100.00
2019-01-19T03:11:30.563Z,100.00
2019-01-19T03:14:49.442Z,100.00
2019-01-19T03:18:31.305Z,100.00
2019-01-19T03:22:03.393Z,100.00
2019-01-19T03:25:24.062Z,100.00
2019-01-19T03:29:04.863Z,100.00
2019-01-19T03:32:39.465Z,100.00
2019-01-19T03:36:23.513Z,100.00
2019-01-19T03:40:05.863Z,100.00
2019-01-19T03:43:30.433Z,100.00
2019-01-19T03:46:55.441Z,100.00
2019-01-19T03:50:40.678Z,100.00
2019-01-19T03:54:26.519Z,100.00
2019-01-19T03:57:27.458Z,100.00
2019-01-19T04:00:41.443Z,100.00
2019-01-19T04:04:29.358Z,100.00
2019-01-19T04:08:01.884Z,100.00
2019-01-19T04:11:12.043Z,100.00
2019-01-19T04:14:51.518Z,100.00
2019-01-19T04:18:26.532Z,100.00
2019-01-19T04:21:59.857Z,100.00
2019-01-19T04:25:12.801Z,100.00
2019-01-19T04:27:49.464Z,100.00
2019-01-19T04:30:23.041Z,100.00
2019-01-19T04:32:57.836Z,100.00
2019-01-19T04:35:33.442Z,100.00
2019-01-19T04:38:06.788Z,100.00
2019-01-19T04:40:42.111Z,100.00
2019-01-19T04:43:18.887Z,100.00
2019-01-19T04:45:51.743Z,100.00
2019-01-19T04:48:28.432Z,100.00
2019-01-19T04:51:05.291Z,100.00
2019-01-19T04:53:39.643Z,100.00
2019-01-19T04:56:22.769Z,100.00
2019-01-19T04:58:58.920Z,100.00
2019-01-19T05:01:37.418Z,100.00
2019-01-19T05:04:12.037Z,100.00
2019-01-19T05:06:50.968Z,100.00
2019-01-19T05:09:25.200Z,100.00
2019-01-19T05:12:01.002Z,100.00
2019-01-19T05:14:35.099Z,100.00
2019-01-19T05:17:08.479Z,100.00
2019-01-19T05:19:43.962Z,100.00
2019-01-19T05:22:19.457Z,100.00
2019-01-19T05:24:56.591Z,100.00
2019-01-19T05:27:30.554Z,100.00
2019-01-19T05:30:04.579Z,100.00
2019-01-19T05:32:42.089Z,100.00
2019-01-19T05:35:16.867Z,100.00
2019-01-19T05:37:51.991Z,100.00
2019-01-19T05:40:26.216Z,100.00
2019-01-19T05:42:58.967Z,100.00
2019-01-19T05:45:34.160Z,100.00
2019-01-19T05:48:07.506Z,100.00
2019-01-19T05:50:41.353Z,100.00
2019-01-19T05:53:14.174Z,100.00
2019-01-19T05:55:45.918Z,100.00
2019-01-19T05:58:17.522Z,100.00
2019-01-19T06:00:49.201Z,100.00
2019-01-19T06:03:20.899Z,100.00
2019-01-19T06:05:52.883Z,100.00
2019-01-19T06:08:25.006Z,100.00
2019-01-19T06:10:56.920Z,100.00
2019-01-19T06:13:28.427Z,100.00
2019-01-19T06:16:00.151Z,100.00
2019-01-19T06:18:33.601Z,100.00
2019-01-19T06:21:07.030Z,100.00
2019-01-19T06:23:38.513Z,100.00
2019-01-19T06:26:10.115Z,100.00
2019-01-19T06:28:41.760Z,100.00
2019-01-19T06:31:14.611Z,100.00
2019-01-19T06:33:46.369Z,100.00
2019-01-19T06:36:18.129Z,100.00
2019-01-19T06:38:52.361Z,100.00
2019-01-19T06:41:24.412Z,100.00
2019-01-19T06:43:56.205Z,100.00
2019-01-19T06:46:27.876Z,100.00
2019-01-19T06:48:59.645Z,100.00
2019-01-19T06:51:31.406Z,100.00
2019-01-19T06:54:03.411Z,100.00
2019-01-19T06:56:35.299Z,100.00
2019-01-19T06:59:07.667Z,100.00
2019-01-19T07:01:39.302Z,100.00
2019-01-19T07:04:11.253Z,100.00
2019-01-19T07:06:43.027Z,100.00
2019-01-19T07:09:14.637Z,100.00
2019-01-19T07:11:46.711Z,100.00
2019-01-19T07:14:18.672Z,100.00
2019-01-19T07:16:50.404Z,100.00
2019-01-19T07:19:22.046Z,100.00
2019-01-19T07:21:53.966Z,100.00
2019-01-19T07:24:25.843Z,100.00
2019-01-19T07:26:57.629Z,100.00
2019-01-19T07:29:29.536Z,100.00
2019-01-19T07:32:02.777Z,100.00
2019-01-19T07:34:34.466Z,100.00
2019-01-19T07:37:09.934Z,100.00
2019-01-19T07:39:39.724Z,100.00
2019-01-19T07:42:11.439Z,100.00
2019-01-19T07:44:43.132Z,100.00
2019-01-19T07:47:15.194Z,100.00
2019-01-19T07:49:46.804Z,100.00
2019-01-19T07:52:18.579Z,100.00
2019-01-19T07:54:50.649Z,100.00
2019-01-19T07:57:22.392Z,100.00
2019-01-19T07:59:54.373Z,100.00
2019-01-19T08:02:26.172Z,100.00
2019-01-19T08:04:57.999Z,100.00
2019-01-19T08:07:32.220Z,100.00
2019-01-19T08:10:04.245Z,100.00
2019-01-19T08:12:35.988Z,100.00
2019-01-19T08:15:11.904Z,100.00
2019-01-19T08:17:44.564Z,100.00
2019-01-19T08:20:17.369Z,100.00
2019-01-19T08:22:49.715Z,100.00
2019-01-19T08:25:21.969Z,100.00
2019-01-19T08:27:54.238Z,100.00
2019-01-19T08:30:29.572Z,99.67
2019-01-19T08:33:01.708Z,93.55
2019-01-19T08:35:34.369Z,89.05
2019-01-19T08:38:06.391Z,85.55
2019-01-19T08:40:40.394Z,80.89
2019-01-19T08:43:33.655Z,74.49
2019-01-19T08:46:05.977Z,71.55
2019-01-19T08:48:39.167Z,68.58
2019-01-19T08:51:11.031Z,64.82
2019-01-19T08:53:42.723Z,62.32
2019-01-19T08:56:14.596Z,58.72
2019-01-19T08:58:46.009Z,57.80
2019-01-19T09:01:17.773Z,54.34
2019-01-19T09:03:50.139Z,53.46
2019-01-19T09:06:22.077Z,53.63
2019-01-19T09:08:54.043Z,53.01
2019-01-19T09:11:26.063Z,53.76
2019-01-19T09:13:58.255Z,53.91
2019-01-19T09:16:30.514Z,58.75
2019-01-19T09:19:02.365Z,60.99
2019-01-19T09:21:35.580Z,57.06
2019-01-19T09:24:22.047Z,55.38
2019-01-19T09:26:53.856Z,54.95
2019-01-19T09:29:26.104Z,56.66
2019-01-19T09:31:58.564Z,53.20
2019-01-19T09:34:30.460Z,51.71
2019-01-19T09:37:02.753Z,50.31
2019-01-19T09:39:35.736Z,51.98
2019-01-19T09:42:07.715Z,56.45
2019-01-19T09:44:40.241Z,60.69
2019-01-19T09:47:12.824Z,66.67
2019-01-19T09:49:45.039Z,71.70
2019-01-19T09:52:21.293Z,75.16
2019-01-19T09:54:51.360Z,75.09
2019-01-19T09:57:24.878Z,70.80
2019-01-19T09:59:56.870Z,61.24
2019-01-19T10:02:29.697Z,55.09
2019-01-19T10:05:02.181Z,52.83
2019-01-19T10:07:34.931Z,50.86
2019-01-19T10:10:08.032Z,52.01
2019-01-19T10:12:41.417Z,54.74
2019-01-19T10:15:15.684Z,51.42
2019-01-19T10:17:48.960Z,47.60
2019-01-19T10:20:26.817Z,47.09
2019-01-19T10:22:59.064Z,50.63
2019-01-19T10:25:31.029Z,49.07
2019-01-19T10:28:03.945Z,48.21
2019-01-19T10:30:35.866Z,47.76
2019-01-19T10:33:08.757Z,46.30
2019-01-19T10:35:41.683Z,45.67
2019-01-19T10:38:14.071Z,47.66
2019-01-19T10:40:46.747Z,44.43
2019-01-19T10:43:18.879Z,42.72
2019-01-19T10:45:52.104Z,41.51
2019-01-19T10:48:24.307Z,41.03
2019-01-19T10:50:56.071Z,39.93
2019-01-19T10:53:28.730Z,37.98
2019-01-19T10:56:00.616Z,36.36
2019-01-19T10:58:32.477Z,36.15
2019-01-19T11:01:07.748Z,36.38
2019-01-19T11:03:39.633Z,36.64
2019-01-19T11:06:13.111Z,40.64
2019-01-19T11:08:45.042Z,43.83
2019-01-19T11:11:16.902Z,44.72
2019-01-19T11:13:48.898Z,43.88
2019-01-19T11:16:21.177Z,39.91
2019-01-19T11:18:53.243Z,41.45
2019-01-19T11:21:25.279Z,45.00
2019-01-19T11:23:58.008Z,46.95
2019-01-19T11:26:30.079Z,45.97
2019-01-19T11:29:01.787Z,49.29
2019-01-19T11:31:33.546Z,50.95
2019-01-19T11:34:05.763Z,48.39
2019-01-19T11:36:37.457Z,50.08
2019-01-19T11:39:11.231Z,53.92
2019-01-19T11:41:43.452Z,55.11
2019-01-19T11:44:15.904Z,55.33
2019-01-19T11:46:47.596Z,56.64
2019-01-19T11:49:19.785Z,50.44
2019-01-19T11:51:51.978Z,44.89
2019-01-19T11:54:23.977Z,38.63
2019-01-19T11:56:56.167Z,41.03
2019-01-19T11:59:28.345Z,42.94
2019-01-19T12:02:00.048Z,41.01
2019-01-19T12:04:33.024Z,40.97
2019-01-19T12:07:05.142Z,45.64
2019-01-19T12:09:37.182Z,47.48
2019-01-19T12:12:11.735Z,48.28
2019-01-19T12:14:44.848Z,50.43
2019-01-19T12:17:16.613Z,52.84
2019-01-19T12:19:48.676Z,51.31
2019-01-19T12:22:20.597Z,51.07
2019-01-19T12:24:52.446Z,53.04
2019-01-19T12:27:24.246Z,53.79
2019-01-19T12:29:56.468Z,52.76
2019-01-19T12:32:28.291Z,48.80
2019-01-19T12:35:00.028Z,44.14
2019-01-19T12:37:32.273Z,41.38
2019-01-19T12:40:04.118Z,48.31
2019-01-19T12:42:36.117Z,49.47
2019-01-19T12:45:12.011Z,49.55
2019-01-19T12:47:43.816Z,50.93
2019-01-19T12:50:23.073Z,54.13
2019-01-19T12:52:54.693Z,53.85
2019-01-19T12:55:26.863Z,55.76
2019-01-19T12:57:58.784Z,56.66
2019-01-19T13:00:30.764Z,56.58
2019-01-19T13:03:03.529Z,56.28
2019-01-19T13:06:00.251Z,54.31
2019-01-19T13:08:34.500Z,55.29
2019-01-19T13:11:39.410Z,54.28
2019-01-19T13:14:11.752Z,53.42
2019-01-19T13:17:25.867Z,51.98
2019-01-19T13:20:43.667Z,55.73
2019-01-19T13:24:21.392Z,59.23
2019-01-19T13:27:33.053Z,59.79
2019-01-19T13:31:02.167Z,60.57
2019-01-19T13:34:29.768Z,65.73
2019-01-19T13:38:23.520Z,69.53
2019-01-19T13:42:15.805Z,66.07
2019-01-19T13:45:42.228Z,60.96
2019-01-19T13:49:45.435Z,62.26
2019-01-19T13:53:17.746Z,59.73
2019-01-19T13:56:32.310Z,58.28
2019-01-19T13:59:46.912Z,59.40
2019-01-19T14:02:54.090Z,60.25
2019-01-19T14:05:59.077Z,60.51
2019-01-19T14:09:27.199Z,60.82
2019-01-19T14:12:14.714Z,61.37
2019-01-19T14:15:41.773Z,63.74
2019-01-19T14:19:01.715Z,64.69
2019-01-19T14:22:10.164Z,65.84
2019-01-19T14:25:28.951Z,67.09
2019-01-19T14:29:11.463Z,67.12
2019-01-19T14:32:48.852Z,68.42
2019-01-19T14:36:04.786Z,69.62
2019-01-19T14:39:07.298Z,71.62
2019-01-19T14:42:31.937Z,73.56
2019-01-19T14:45:36.454Z,74.92
2019-01-19T14:49:20.034Z,76.23
2019-01-19T14:52:29.275Z,78.77
2019-01-19T14:55:59.267Z,79.97
2019-01-19T14:59:08.608Z,80.73
2019-01-19T15:02:31.166Z,82.32
2019-01-19T15:05:34.581Z,83.65
2019-01-19T15:08:38.423Z,84.77
2019-01-19T15:12:10.394Z,85.34
2019-01-19T15:15:17.014Z,85.77
2019-01-19T15:18:30.636Z,86.37
2019-01-19T15:21:58.496Z,86.63
2019-01-19T15:25:43.608Z,86.02
2019-01-19T15:29:02.819Z,85.88
2019-01-19T15:32:09.429Z,86.00
2019-01-19T15:35:46.638Z,86.09
2019-01-19T15:39:11.015Z,86.00
2019-01-19T15:42:35.076Z,84.59
2019-01-19T15:45:54.557Z,86.66
2019-01-19T15:49:30.446Z,87.20
2019-01-19T15:52:36.730Z,87.52
2019-01-19T15:56:04.411Z,88.56
2019-01-19T15:59:24.045Z,88.81
2019-01-19T16:02:47.291Z,89.03
2019-01-19T16:05:55.715Z,88.78
2019-01-19T16:09:18.355Z,88.65
2019-01-19T16:12:34.084Z,89.21
2019-01-19T16:16:17.253Z,90.25
2019-01-19T16:19:40.440Z,90.07
2019-01-19T16:22:49.015Z,90.82
2019-01-19T16:26:32.826Z,91.20
2019-01-19T16:30:14.188Z,91.50
2019-01-19T16:33:35.374Z,92.23
2019-01-19T16:37:01.589Z,92.70
2019-01-19T16:40:36.181Z,93.51
2019-01-19T16:44:10.137Z,94.32
2019-01-19T16:47:56.824Z,95.28
2019-01-19T16:51:11.916Z,95.73
2019-01-19T16:54:32.247Z,95.83
2019-01-19T16:57:52.119Z,96.11
2019-01-19T17:01:07.006Z,95.94
2019-01-19T17:05:03.443Z,96.32
2019-01-19T17:08:36.498Z,96.87
2019-01-19T17:12:09.275Z,97.68
2019-01-19T17:15:25.207Z,98.28
2019-01-19T17:18:39.842Z,99.28
2019-01-19T17:22:02.745Z,100.00
2019-01-19T17:25:18.550Z,100.00
2019-01-19T17:28:56.401Z,100.00
2019-01-19T17:31:59.534Z,100.00
2019-01-19T17:35:43.797Z,100.00
2019-01-19T17:39:14.762Z,100.00
2019-01-19T17:42:53.855Z,100.00
2019-01-19T17:46:31.273Z,100.00
2019-01-19T17:50:02.275Z,100.00
2019-01-19T17:53:22.681Z,100.00
2019-01-19T17:56:39.228Z,100.00
2019-01-19T18:00:28.117Z,100.00
2019-01-19T18:03:57.011Z,100.00
2019-01-19T18:07:28.640Z,100.00
2019-01-19T18:11:17.401Z,100.00
2019-01-19T18:14:57.381Z,100.00
2019-01-19T18:18:26.307Z,100.00
2019-01-19T18:22:05.707Z,100.00
2019-01-19T18:26:01.930Z,100.00
2019-01-19T18:29:30.040Z,100.00
2019-01-19T18:32:46.109Z,100.00
2019-01-19T18:36:27.931Z,100.00
2019-01-19T18:39:54.574Z,100.00
2019-01-19T18:43:27.479Z,100.00
2019-01-19T18:46:24.586Z,100.00
2019-01-19T18:50:08.656Z,100.00
2019-01-19T18:53:27.568Z,100.00
2019-01-19T18:57:04.855Z,100.00
2019-01-19T19:00:08.161Z,100.00
2019-01-19T19:03:13.504Z,100.00
2019-01-19T19:06:34.669Z,100.00
2019-01-19T19:10:02.272Z,100.00
2019-01-19T19:13:28.462Z,100.00
2019-01-19T19:17:17.855Z,100.00
2019-01-19T19:20:32.092Z,100.00
2019-01-19T19:24:05.233Z,100.00
2019-01-19T19:27:42.809Z,100.00
2019-01-19T19:31:35.788Z,100.00
2019-01-19T19:35:02.037Z,100.00
2019-01-19T19:38:43.533Z,100.00
2019-01-19T19:42:26.385Z,100.00
2019-01-19T19:45:57.605Z,100.00
2019-01-19T19:49:30.647Z,100.00
2019-01-19T19:52:12.300Z,100.00
2019-01-19T19:54:52.779Z,100.00
2019-01-19T19:57:26.180Z,100.00
2019-01-19T20:00:00.623Z,100.00
2019-01-19T20:02:35.962Z,100.00
2019-01-19T20:05:09.954Z,100.00
2019-01-19T20:07:43.079Z,100.00
2019-01-19T20:10:17.270Z,100.00
2019-01-19T20:12:51.091Z,100.00
2019-01-19T20:15:24.699Z,100.00
2019-01-19T20:17:58.209Z,100.00
2019-01-19T20:20:30.467Z,100.00
2019-01-19T20:23:03.258Z,100.00
2019-01-19T20:25:35.904Z,100.00
2019-01-19T20:28:08.622Z,100.00
2019-01-19T20:30:42.823Z,100.00
2019-01-19T20:33:17.328Z,100.00
2019-01-19T20:35:57.272Z,100.00
2019-01-19T20:38:30.682Z,100.00
2019-01-19T20:41:04.655Z,100.00
2019-01-19T20:43:37.531Z,100.00
2019-01-19T20:46:14.274Z,100.00
2019-01-19T20:48:48.479Z,100.00
2019-01-19T20:51:25.360Z,100.00
2019-01-19T20:53:58.536Z,100.00
2019-01-19T20:56:32.583Z,100.00
2019-01-19T20:59:05.656Z,100.00
2019-01-19T21:01:39.313Z,100.00
2019-01-19T21:04:15.869Z,100.00
2019-01-19T21:06:48.879Z,100.00
2019-01-19T21:09:21.668Z,100.00
2019-01-19T21:11:55.335Z,100.00
2019-01-19T21:14:29.453Z,100.00
2019-01-19T21:17:03.497Z,100.00
2019-01-19T21:19:37.047Z,100.00
2019-01-19T21:22:10.878Z,100.00
2019-01-19T21:24:44.535Z,100.00
2019-01-19T21:27:18.564Z,100.00
2019-01-19T21:29:50.584Z,100.00
2019-01-19T21:32:23.340Z,100.00
2019-01-19T21:34:55.588Z,100.00
2019-01-19T21:37:28.664Z,100.00
2019-01-19T21:40:01.041Z,100.00
2019-01-19T21:42:33.941Z,100.00
2019-01-19T21:45:10.247Z,100.00
2019-01-19T21:47:43.481Z,100.00
2019-01-19T21:50:17.187Z,100.00
2019-01-19T21:52:50.059Z,100.00
2019-01-19T21:55:23.210Z,100.00
2019-01-19T21:57:56.542Z,100.00
2019-01-19T22:00:29.084Z,100.00
2019-01-19T22:03:02.456Z,100.00
2019-01-19T22:05:36.091Z,100.00
2019-01-19T22:08:09.156Z,100.00
2019-01-19T22:10:46.269Z,100.00
2019-01-19T22:13:17.760Z,100.00
2019-01-19T22:15:50.620Z,100.00
2019-01-19T22:18:28.587Z,100.00
2019-01-19T22:21:02.140Z,100.00
2019-01-19T22:23:34.624Z,100.00
2019-01-19T22:26:09.888Z,100.00
2019-01-19T22:28:42.209Z,100.00
2019-01-19T22:31:15.431Z,100.00
2019-01-19T22:33:49.061Z,100.00
2019-01-19T22:36:23.015Z,100.00
2019-01-19T22:38:55.785Z,100.00
2019-01-19T22:41:27.774Z,100.00
2019-01-19T22:44:01.898Z,100.00
2019-01-19T22:46:34.763Z,100.00
2019-01-19T22:49:07.422Z,100.00
2019-01-19T22:51:40.567Z,100.00
2019-01-19T22:54:13.001Z,100.00
2019-01-19T22:56:45.580Z,100.00
2019-01-19T22:59:19.531Z,100.00
2019-01-19T23:02:10.466Z,100.00
2019-01-19T23:04:43.045Z,100.00
2019-01-19T23:07:15.506Z,100.00
2019-01-19T23:09:50.154Z,100.00
2019-01-19T23:12:29.616Z,100.00
2019-01-19T23:15:02.419Z,100.00
2019-01-19T23:17:40.125Z,100.00
2019-01-19T23:20:12.506Z,100.00
2019-01-19T23:22:45.360Z,100.00
2019-01-19T23:25:17.676Z,100.00
2019-01-19T23:27:49.454Z,100.00
2019-01-19T23:30:21.206Z,100.00
2019-01-19T23:32:53.242Z,100.00
2019-01-19T23:35:25.249Z,100.00
2019-01-19T23:37:59.254Z,100.00
2019-01-19T23:40:31.331Z,100.00
2019-01-19T23:43:03.245Z,100.00
2019-01-19T23:45:35.150Z,100.00
2019-01-19T23:48:06.956Z,100.00
2019-01-19T23:50:39.051Z,100.00
2019-01-19T23:53:10.902Z,100.00
2019-01-19T23:55:42.935Z,100.00
2019-01-19T23:58:14.867Z,100.00
